< Typhoon 198128 1981 Season Typhoon 198201 >
Typhoon 198129 (LEE)
General InformationTrack Information on Google MapsDetailed Wind InformationList of All Images || Disaster Info.ResourceGoogle EarthGE AnimationAtom FeedGeoJSON
Detalied Best Track (Time Zone = UTC)
Year Month Day Hour Lat. Long. Pressure (hPa) Wind (kt) Class Image Chart
1981 12 22 18 9.5 139.0 1004 0 2 Image Chart
1981 12 23 00 9.5 137.5 1002 0 2 Image Chart
1981 12 23 06 10.0 136.0 996 0 2 Image Chart
1981 12 23 12 10.7 134.7 994 40 3 Image Chart
1981 12 23 18 11.3 133.4 992 40 3 Image Chart
1981 12 24 00 11.8 132.1 980 55 4 Image Chart
1981 12 24 06 12.0 130.8 975 65 5 Image Chart
1981 12 24 12 12.4 129.8 970 70 5 Image Chart
1981 12 24 18 12.7 128.7 960 75 5 Image Chart
1981 12 25 00 12.8 127.8 960 70 5 Image Chart
1981 12 25 06 12.7 126.3 950 80 5 Image Chart
1981 12 25 12 12.6 124.8 950 80 5 Image Chart
1981 12 25 18 12.8 123.3 955 70 5 Image Chart
1981 12 26 00 13.1 121.7 960 70 5 Image Chart
1981 12 26 06 13.5 120.0 970 55 4 Image Chart
1981 12 26 12 13.8 119.0 970 55 4 Image Chart
1981 12 26 18 14.1 117.9 975 55 4 Image Chart
1981 12 27 00 14.2 116.8 990 40 3 Image Chart
1981 12 27 06 14.7 116.1 990 40 3 Image Chart
1981 12 27 12 15.4 115.2 994 40 3 Image Chart
1981 12 27 18 16.1 114.3 998 40 3 Image Chart
1981 12 28 00 16.5 113.7 1000 40 3 Image Chart
1981 12 28 06 17.0 113.3 1004 0 2 Image Chart
1981 12 28 12 17.5 113.1 1008 0 2 Image Chart
1981 12 28 18 18.2 113.3 1008 0 2 Image Chart
1981 12 29 00 19.0 114.0 1008 0 2 Image Chart
1981 12 29 06 19.8 114.8 1008 0 2 Image Chart
1981 12 29 12 20.5 115.5 1010 0 2 Image Chart
1981 12 29 18 20.9 116.0 1012 0 2 Image Chart
Japan Meteorological Agency Best Track Data | Correction Date : 1992-10-21
< Typhoon 198128 1981 Season Typhoon 198201 >

Help